Time,TemperatureF,DewpointF,PressureIn,WindDirection,WindDirectionDegrees,WindSpeedMPH,WindSpeedGustMPH,Humidity,HourlyPrecipIn,Conditions,Clouds,dailyrainin,SoftwareType,DateUTC
2013-10-26 00:02:00,38.1,27.4,29.97,NNW,340,7.0,12.0,65,0.00,,CLR,0.00,VWS V14.00,2013-10-26 05:02:00,
2013-10-26 00:07:00,37.9,27.2,29.97,NW,313,6.0,12.0,65,0.00,,CLR,0.00,VWS V14.00,2013-10-26 05:07:00,
2013-10-26 00:12:00,37.9,27.2,29.97,NW,308,1.0,9.0,65,0.00,,CLR,0.00,VWS V14.00,2013-10-26 05:12:00,
2013-10-26 00:17:00,38.1,27.4,29.97,NW,318,3.0,10.0,65,0.00,,CLR,0.00,VWS V14.00,2013-10-26 05:17:00,
2013-10-26 00:22:00,38.1,27.4,29.97,NW,313,5.0,9.0,65,0.00,,CLR,0.00,VWS V14.00,2013-10-26 05:22:00,
2013-10-26 00:27:00,38.2,27.5,29.97,WNW,299,4.0,11.0,65,0.00,,CLR,0.00,VWS V14.00,2013-10-26 05:27:00,
2013-10-26 00:33:00,38.3,27.2,29.97,NW,310,5.0,9.0,64,0.00,,CLR,0.00,VWS V14.00,2013-10-26 05:33:00,
2013-10-26 00:38:00,38.3,27.2,29.98,NW,307,2.0,11.0,64,0.00,,CLR,0.00,VWS V14.00,2013-10-26 05:38:00,
2013-10-26 00:43:00,38.3,27.6,29.98,WNW,301,0.0,6.0,65,0.00,,CLR,0.00,VWS V14.00,2013-10-26 05:43:00,
2013-10-26 00:48:00,38.2,27.5,29.98,WNW,300,0.0,11.0,65,0.00,,CLR,0.00,VWS V14.00,2013-10-26 05:48:00,
2013-10-26 00:53:00,38.2,27.5,29.98,WNW,299,6.0,11.0,65,0.00,,CLR,0.00,VWS V14.00,2013-10-26 05:53:00,
2013-10-26 00:58:00,38.2,27.1,29.98,WNW,302,5.0,13.0,64,0.00,,CLR,0.00,VWS V14.00,2013-10-26 05:58:00,
2013-10-26 01:03:00,38.3,27.2,29.98,NW,313,0.0,9.0,64,0.00,,OVC060,0.00,VWS V14.00,2013-10-26 06:03:00,
2013-10-26 01:08:00,38.3,27.2,29.98,WNW,303,0.0,11.0,64,0.00,,OVC060,0.00,VWS V14.00,2013-10-26 06:08:00,
2013-10-26 01:13:00,38.3,27.2,29.99,NW,307,0.0,11.0,64,0.00,,OVC060,0.00,VWS V14.00,2013-10-26 06:13:00,
2013-10-26 01:18:00,38.3,27.2,29.99,NW,312,0.0,11.0,64,0.00,,OVC060,0.00,VWS V14.00,2013-10-26 06:18:00,
2013-10-26 01:23:00,38.3,27.2,29.99,NW,313,0.0,0.0,64,0.00,,OVC060,0.00,VWS V14.00,2013-10-26 06:23:00,
2013-10-26 01:28:00,38.2,27.1,29.99,NW,305,0.0,13.0,64,0.00,,OVC060,0.00,VWS V14.00,2013-10-26 06:28:00,
2013-10-26 01:33:00,38.2,27.1,29.99,NW,307,0.0,0.0,64,0.00,,OVC060,0.00,VWS V14.00,2013-10-26 06:33:00,
2013-10-26 01:38:00,38.1,27.0,29.99,NW,305,0.0,0.0,64,0.00,,OVC060,0.00,VWS V14.00,2013-10-26 06:38:00,
2013-10-26 01:43:00,38.1,27.0,29.99,WNW,292,5.0,7.0,64,0.00,,OVC060,0.00,VWS V14.00,2013-10-26 06:43:00,
2013-10-26 01:48:00,38.3,27.2,29.99,WNW,286,4.0,13.0,64,0.00,,OVC060,0.00,VWS V14.00,2013-10-26 06:48:00,
2013-10-26 01:53:00,38.4,27.3,29.99,WNW,293,2.0,8.0,64,0.00,,OVC060,0.00,VWS V14.00,2013-10-26 06:53:00,
2013-10-26 01:58:00,38.5,27.0,29.99,WNW,302,3.0,12.0,63,0.00,,OVC060,0.00,VWS V14.00,2013-10-26 06:58:00,
2013-10-26 02:03:00,38.6,27.1,29.99,NW,305,8.0,9.0,63,0.00,,OVC060,0.00,VWS V14.00,2013-10-26 07:03:00,
2013-10-26 02:08:00,38.8,27.3,29.99,NW,311,5.0,12.0,63,0.00,,OVC060,0.00,VWS V14.00,2013-10-26 07:08:00,
2013-10-26 02:13:00,39.0,27.1,30.00,NW,312,0.0,12.0,62,0.00,,OVC060,0.00,VWS V14.00,2013-10-26 07:13:00,
2013-10-26 02:18:00,39.1,27.2,30.00,NW,318,10.0,13.0,62,0.00,,OVC060,0.00,VWS V14.00,2013-10-26 07:18:00,
2013-10-26 02:23:00,39.3,27.0,30.00,NW,313,9.0,16.0,61,0.00,,OVC060,0.00,VWS V14.00,2013-10-26 07:23:00,
2013-10-26 02:28:00,39.4,27.1,30.00,NW,308,1.0,16.0,61,0.00,,OVC060,0.00,VWS V14.00,2013-10-26 07:28:00,
2013-10-26 02:33:00,39.4,27.1,30.00,NW,314,6.0,14.0,61,0.00,,OVC060,0.00,VWS V14.00,2013-10-26 07:33:00,
2013-10-26 02:38:00,39.5,27.2,30.00,WNW,298,0.0,14.0,61,0.00,,OVC060,0.00,VWS V14.00,2013-10-26 07:38:00,
2013-10-26 02:43:00,39.5,27.2,30.00,NW,309,5.0,8.0,61,0.00,,OVC060,0.00,VWS V14.00,2013-10-26 07:43:00,
2013-10-26 02:48:00,39.5,27.2,30.01,WNW,295,3.0,8.0,61,0.00,,OVC060,0.00,VWS V14.00,2013-10-26 07:48:00,
2013-10-26 02:53:00,39.4,27.1,30.01,WNW,292,2.0,10.0,61,0.00,,OVC060,0.00,VWS V14.00,2013-10-26 07:53:00,
2013-10-26 02:58:00,39.1,27.2,30.01,NW,304,4.0,10.0,62,0.00,,OVC060,0.00,VWS V14.00,2013-10-26 07:58:00,
2013-10-26 03:03:00,38.8,26.9,30.01,WNW,286,0.0,10.0,62,0.00,,BKN065,0.00,VWS V14.00,2013-10-26 08:03:00,
2013-10-26 03:08:00,38.5,26.6,30.01,WNW,297,7.0,11.0,62,0.00,,BKN065,0.00,VWS V14.00,2013-10-26 08:08:00,
2013-10-26 03:13:00,38.3,26.8,30.02,WNW,287,7.0,10.0,63,0.00,,BKN065,0.00,VWS V14.00,2013-10-26 08:13:00,
2013-10-26 03:18:00,38.0,26.9,30.02,NW,319,9.0,15.0,64,0.00,,BKN065,0.00,VWS V14.00,2013-10-26 08:18:00,
2013-10-26 03:23:00,37.9,26.8,30.03,NW,306,7.0,13.0,64,0.00,,BKN065,0.00,VWS V14.00,2013-10-26 08:23:00,
2013-10-26 03:28:00,37.6,26.5,30.03,NW,309,6.0,13.0,64,0.00,,BKN065,0.00,VWS V14.00,2013-10-26 08:28:00,
2013-10-26 03:33:00,37.4,26.4,30.03,WNW,301,9.0,14.0,64,0.00,,BKN065,0.00,VWS V14.00,2013-10-26 08:33:00,
2013-10-26 03:38:00,37.2,26.2,30.03,WNW,292,6.0,14.0,64,0.00,,BKN065,0.00,VWS V14.00,2013-10-26 08:38:00,
2013-10-26 03:43:00,37.0,26.0,30.03,WNW,297,9.0,16.0,64,0.00,,BKN065,0.00,VWS V14.00,2013-10-26 08:43:00,
2013-10-26 03:48:00,36.9,25.9,30.03,WNW,292,3.0,16.0,64,0.00,,BKN065,0.00,VWS V14.00,2013-10-26 08:48:00,
2013-10-26 03:53:00,36.7,25.7,30.03,NW,308,5.0,13.0,64,0.00,,BKN065,0.00,VWS V14.00,2013-10-26 08:53:00,
2013-10-26 03:58:00,36.5,25.1,30.04,WNW,297,3.0,13.0,63,0.00,,BKN065,0.00,VWS V14.00,2013-10-26 08:58:00,
2013-10-26 04:03:00,36.4,25.0,30.04,NW,317,9.0,19.0,63,0.00,,CLR,0.00,VWS V14.00,2013-10-26 09:03:00,
2013-10-26 04:08:00,36.3,24.9,30.04,WNW,300,3.0,19.0,63,0.00,,CLR,0.00,VWS V14.00,2013-10-26 09:08:00,
2013-10-26 04:13:00,36.2,24.8,30.04,WNW,297,7.0,14.0,63,0.00,,CLR,0.00,VWS V14.00,2013-10-26 09:13:00,
2013-10-26 04:18:00,36.1,24.7,30.05,NW,305,9.0,17.0,63,0.00,,CLR,0.00,VWS V14.00,2013-10-26 09:18:00,
2013-10-26 04:23:00,35.9,24.5,30.05,NW,309,2.0,15.0,63,0.00,,CLR,0.00,VWS V14.00,2013-10-26 09:23:00,
2013-10-26 04:28:00,35.7,24.4,30.05,NW,304,6.0,15.0,63,0.00,,CLR,0.00,VWS V14.00,2013-10-26 09:28:00,
2013-10-26 04:33:00,35.4,24.5,30.05,WNW,300,3.0,9.0,64,0.00,,CLR,0.00,VWS V14.00,2013-10-26 09:33:00,
2013-10-26 04:38:00,35.2,24.3,30.05,NW,305,2.0,12.0,64,0.00,,CLR,0.00,VWS V14.00,2013-10-26 09:38:00,
2013-10-26 04:43:00,35.0,24.1,30.06,WNW,283,7.0,13.0,64,0.00,,CLR,0.00,VWS V14.00,2013-10-26 09:43:00,
2013-10-26 04:48:00,34.8,23.9,30.06,WNW,287,3.0,13.0,64,0.00,,CLR,0.00,VWS V14.00,2013-10-26 09:48:00,
2013-10-26 04:54:00,34.7,24.1,30.06,WNW,290,0.0,11.0,65,0.00,,CLR,0.00,VWS V14.00,2013-10-26 09:54:00,
2013-10-26 04:59:00,34.5,24.0,30.06,WNW,288,4.0,11.0,65,0.00,,CLR,0.00,VWS V14.00,2013-10-26 09:59:00,
2013-10-26 05:04:00,34.2,23.7,30.07,WNW,302,0.0,9.0,65,0.00,,CLR,0.00,VWS V14.00,2013-10-26 10:04:00,
2013-10-26 05:09:00,34.1,23.6,30.07,NW,308,4.0,11.0,65,0.00,,CLR,0.00,VWS V14.00,2013-10-26 10:09:00,
2013-10-26 05:14:00,33.9,23.8,30.07,WNW,297,0.0,9.0,66,0.00,,CLR,0.00,VWS V14.00,2013-10-26 10:14:00,
2013-10-26 05:19:00,33.8,23.7,30.07,NW,316,6.0,14.0,66,0.00,,CLR,0.00,VWS V14.00,2013-10-26 10:19:00,
2013-10-26 05:24:00,33.8,23.7,30.07,WNW,291,0.0,13.0,66,0.00,,CLR,0.00,VWS V14.00,2013-10-26 10:24:00,
2013-10-26 05:29:00,33.8,23.7,30.07,NW,310,10.0,13.0,66,0.00,,CLR,0.00,VWS V14.00,2013-10-26 10:29:00,
2013-10-26 05:34:00,33.7,23.6,30.07,WNW,285,3.0,13.0,66,0.00,,CLR,0.00,VWS V14.00,2013-10-26 10:34:00,
2013-10-26 05:39:00,33.6,23.5,30.07,NW,312,5.0,15.0,66,0.00,,CLR,0.00,VWS V14.00,2013-10-26 10:39:00,
2013-10-26 05:44:00,33.6,23.5,30.08,WNW,302,4.0,16.0,66,0.00,,CLR,0.00,VWS V14.00,2013-10-26 10:44:00,
2013-10-26 05:49:00,33.5,23.4,30.08,NW,312,3.0,16.0,66,0.00,,CLR,0.00,VWS V14.00,2013-10-26 10:49:00,
2013-10-26 05:54:00,33.5,23.4,30.08,NW,317,8.0,10.0,66,0.00,,CLR,0.00,VWS V14.00,2013-10-26 10:54:00,
2013-10-26 05:59:00,33.3,23.2,30.08,WNW,302,0.0,12.0,66,0.00,,CLR,0.00,VWS V14.00,2013-10-26 10:59:00,
2013-10-26 06:04:00,33.3,23.2,30.09,NW,306,7.0,12.0,66,0.00,,CLR,0.00,VWS V14.00,2013-10-26 11:04:00,
2013-10-26 06:09:00,33.1,23.0,30.09,WNW,294,1.0,12.0,66,0.00,,CLR,0.00,VWS V14.00,2013-10-26 11:09:00,
2013-10-26 06:14:00,33.0,22.9,30.09,NW,311,7.0,12.0,66,0.00,,CLR,0.00,VWS V14.00,2013-10-26 11:14:00,
2013-10-26 06:19:00,32.9,23.2,30.09,NW,312,0.0,12.0,67,0.00,,CLR,0.00,VWS V14.00,2013-10-26 11:19:00,
2013-10-26 06:24:00,32.9,23.2,30.09,NW,317,5.0,11.0,67,0.00,,CLR,0.00,VWS V14.00,2013-10-26 11:24:00,
2013-10-26 06:29:00,32.7,23.0,30.09,WNW,293,0.0,11.0,67,0.00,,CLR,0.00,VWS V14.00,2013-10-26 11:29:00,
2013-10-26 06:34:00,32.8,23.1,30.10,WNW,294,2.0,7.0,67,0.00,,CLR,0.00,VWS V14.00,2013-10-26 11:34:00,
2013-10-26 06:39:00,32.8,23.1,30.09,WNW,292,0.0,8.0,67,0.00,,CLR,0.00,VWS V14.00,2013-10-26 11:39:00,
2013-10-26 06:44:00,32.9,23.2,30.10,WNW,289,0.0,11.0,67,0.00,,CLR,0.00,VWS V14.00,2013-10-26 11:44:00,
2013-10-26 06:49:00,33.0,23.2,30.10,WNW,289,0.0,11.0,67,0.00,,CLR,0.00,VWS V14.00,2013-10-26 11:49:00,
2013-10-26 06:54:00,33.0,23.2,30.09,WNW,285,5.0,8.0,67,0.00,,CLR,0.00,VWS V14.00,2013-10-26 11:54:00,
2013-10-26 06:59:00,33.0,23.2,30.10,West,281,4.0,8.0,67,0.00,,CLR,0.00,VWS V14.00,2013-10-26 11:59:00,
2013-10-26 07:04:00,33.0,23.6,30.10,WNW,289,4.0,10.0,68,0.00,,OVC042,0.00,VWS V14.00,2013-10-26 12:04:00,
2013-10-26 07:09:00,33.1,23.7,30.10,WNW,292,0.0,10.0,68,0.00,,OVC042,0.00,VWS V14.00,2013-10-26 12:09:00,
2013-10-26 07:14:00,33.1,23.4,30.10,WNW,287,0.0,0.0,67,0.00,,OVC042,0.00,VWS V14.00,2013-10-26 12:14:00,
2013-10-26 07:19:00,33.1,23.7,30.10,WNW,297,0.0,0.0,68,0.00,,OVC042,0.00,VWS V14.00,2013-10-26 12:19:00,
2013-10-26 07:24:00,33.2,23.5,30.10,NW,310,0.0,0.0,67,0.00,,OVC042,0.00,VWS V14.00,2013-10-26 12:24:00,
2013-10-26 07:29:00,33.3,23.9,30.11,WNW,300,0.0,0.0,68,0.00,,OVC042,0.00,VWS V14.00,2013-10-26 12:29:00,
2013-10-26 07:34:00,33.5,23.7,30.11,WNW,296,0.0,0.0,67,0.00,,OVC042,0.00,VWS V14.00,2013-10-26 12:34:00,
2013-10-26 07:39:00,33.6,23.8,30.11,West,281,0.0,0.0,67,0.00,,OVC042,0.00,VWS V14.00,2013-10-26 12:39:00,
2013-10-26 07:44:00,33.6,23.8,30.11,WNW,287,1.0,11.0,67,0.00,,OVC042,0.00,VWS V14.00,2013-10-26 12:44:00,
2013-10-26 07:49:00,33.4,23.6,30.12,WNW,289,3.0,11.0,67,0.00,,OVC042,0.00,VWS V14.00,2013-10-26 12:49:00,
2013-10-26 07:54:00,33.1,23.7,30.11,WNW,286,8.0,12.0,68,0.00,,OVC042,0.00,VWS V14.00,2013-10-26 12:54:00,
2013-10-26 07:59:00,32.9,23.5,30.12,WNW,287,4.0,12.0,68,0.00,,OVC042,0.00,VWS V14.00,2013-10-26 12:59:00,
2013-10-26 08:04:00,32.7,23.3,30.12,WNW,288,5.0,10.0,68,0.00,,SCT044,0.00,VWS V14.00,2013-10-26 13:04:00,
2013-10-26 08:09:00,32.6,23.6,30.12,WNW,283,0.0,10.0,69,0.00,,SCT044,0.00,VWS V14.00,2013-10-26 13:09:00,
2013-10-26 08:15:00,32.5,23.5,30.12,WNW,293,1.0,10.0,69,0.00,,SCT044,0.00,VWS V14.00,2013-10-26 13:15:00,
2013-10-26 08:20:00,32.5,23.5,30.12,WNW,296,0.0,10.0,69,0.00,,SCT044,0.00,VWS V14.00,2013-10-26 13:20:00,
2013-10-26 08:25:00,32.6,23.6,30.12,WNW,296,0.0,8.0,69,0.00,,SCT044,0.00,VWS V14.00,2013-10-26 13:25:00,
2013-10-26 08:30:00,32.7,24.0,30.13,WNW,298,2.0,9.0,70,0.00,,SCT044,0.00,VWS V14.00,2013-10-26 13:30:00,
2013-10-26 08:35:00,32.8,24.1,30.13,West,281,5.0,9.0,70,0.00,,SCT044,0.00,VWS V14.00,2013-10-26 13:35:00,
2013-10-26 08:40:00,33.0,24.3,30.13,WNW,287,7.0,11.0,70,0.00,,SCT044,0.00,VWS V14.00,2013-10-26 13:40:00,
2013-10-26 08:45:00,33.2,24.1,30.13,WNW,284,6.0,9.0,69,0.00,,SCT044,0.00,VWS V14.00,2013-10-26 13:45:00,
2013-10-26 08:50:00,33.4,24.3,30.12,NW,304,0.0,0.0,69,0.00,,SCT044,0.00,VWS V14.00,2013-10-26 13:50:00,
2013-10-26 08:55:00,33.7,24.6,30.12,NW,307,5.0,14.0,69,0.00,,SCT044,0.00,VWS V14.00,2013-10-26 13:55:00,
2013-10-26 09:00:00,34.1,24.7,30.12,WNW,302,1.0,4.0,68,0.00,,SCT044,0.00,VWS V14.00,2013-10-26 14:00:00,
2013-10-26 09:05:00,34.4,25.0,30.13,NW,324,5.0,15.0,68,0.00,,CLR,0.00,VWS V14.00,2013-10-26 14:05:00,
2013-10-26 09:10:00,34.9,25.4,30.14,NW,319,5.0,8.0,68,0.00,,CLR,0.00,VWS V14.00,2013-10-26 14:10:00,
2013-10-26 09:15:00,35.5,25.6,30.14,NW,308,6.0,14.0,67,0.00,,CLR,0.00,VWS V14.00,2013-10-26 14:15:00,
2013-10-26 09:20:00,36.0,25.8,30.14,NW,317,0.0,6.0,66,0.00,,CLR,0.00,VWS V14.00,2013-10-26 14:20:00,
2013-10-26 09:25:00,36.4,25.8,30.15,NW,306,10.0,16.0,65,0.00,,CLR,0.00,VWS V14.00,2013-10-26 14:25:00,
2013-10-26 09:30:00,36.7,25.7,30.15,NW,312,5.0,9.0,64,0.00,,CLR,0.00,VWS V14.00,2013-10-26 14:30:00,
2013-10-26 09:35:00,37.0,26.0,30.16,NW,315,4.0,17.0,64,0.00,,CLR,0.00,VWS V14.00,2013-10-26 14:35:00,
2013-10-26 09:40:00,37.2,26.2,30.16,NW,307,8.0,10.0,64,0.00,,CLR,0.00,VWS V14.00,2013-10-26 14:40:00,
2013-10-26 09:45:00,37.4,26.4,30.16,WNW,288,0.0,13.0,64,0.00,,CLR,0.00,VWS V14.00,2013-10-26 14:45:00,
2013-10-26 09:50:00,37.4,26.4,30.15,NW,314,9.0,11.0,64,0.00,,CLR,0.00,VWS V14.00,2013-10-26 14:50:00,
2013-10-26 09:55:00,37.4,26.4,30.16,NW,318,6.0,12.0,64,0.00,,CLR,0.00,VWS V14.00,2013-10-26 14:55:00,
2013-10-26 10:00:00,37.4,26.4,30.15,WNW,300,0.0,3.0,64,0.00,,OVC038,0.00,VWS V14.00,2013-10-26 15:00:00,
2013-10-26 10:05:00,37.6,26.5,30.15,NW,306,0.0,12.0,64,0.00,,OVC038,0.00,VWS V14.00,2013-10-26 15:05:00,
2013-10-26 10:10:00,37.8,26.7,30.15,NW,316,0.0,0.0,64,0.00,,OVC038,0.00,VWS V14.00,2013-10-26 15:10:00,
2013-10-26 10:15:00,37.9,26.8,30.15,WNW,302,12.0,12.0,64,0.00,,OVC038,0.00,VWS V14.00,2013-10-26 15:15:00,
2013-10-26 10:20:00,38.1,26.6,30.15,NW,320,4.0,11.0,63,0.00,,OVC038,0.00,VWS V14.00,2013-10-26 15:20:00,
2013-10-26 10:25:00,38.4,27.3,30.15,NW,304,2.0,11.0,64,0.00,,OVC038,0.00,VWS V14.00,2013-10-26 15:25:00,
2013-10-26 10:30:00,38.7,27.2,30.15,WNW,294,3.0,7.0,63,0.00,,OVC038,0.00,VWS V14.00,2013-10-26 15:30:00,
2013-10-26 10:35:00,39.0,27.5,30.15,NNW,329,0.0,12.0,63,0.00,,OVC038,0.00,VWS V14.00,2013-10-26 15:35:00,
2013-10-26 10:40:00,39.2,27.3,30.15,NNW,339,4.0,12.0,62,0.00,,OVC038,0.00,VWS V14.00,2013-10-26 15:40:00,
2013-10-26 10:45:00,39.5,27.2,30.15,NNW,336,7.0,14.0,61,0.00,,OVC038,0.00,VWS V14.00,2013-10-26 15:45:00,
2013-10-26 10:50:00,39.9,27.6,30.15,North,357,3.0,12.0,61,0.00,,OVC038,0.00,VWS V14.00,2013-10-26 15:50:00,
2013-10-26 10:55:00,40.3,27.9,30.15,NNW,346,8.0,15.0,61,0.00,,OVC038,0.00,VWS V14.00,2013-10-26 15:55:00,
2013-10-26 11:00:00,40.9,28.5,30.15,NNW,346,3.0,10.0,61,0.00,,OVC044,0.00,VWS V14.00,2013-10-26 16:00:00,
2013-10-26 11:05:00,41.2,28.4,30.15,NW,325,6.0,16.0,60,0.00,,OVC044,0.00,VWS V14.00,2013-10-26 16:05:00,
2013-10-26 11:10:00,41.2,28.0,30.15,NNW,336,0.0,6.0,59,0.00,,OVC044,0.00,VWS V14.00,2013-10-26 16:10:00,
2013-10-26 11:15:00,41.1,27.9,30.15,NNW,338,1.0,13.0,59,0.00,,OVC044,0.00,VWS V14.00,2013-10-26 16:15:00,
2013-10-26 11:20:00,41.3,28.1,30.15,NW,321,3.0,13.0,59,0.00,,OVC044,0.00,VWS V14.00,2013-10-26 16:20:00,
2013-10-26 11:25:00,41.9,28.2,30.16,North,0,9.0,20.0,58,0.00,,OVC044,0.00,VWS V14.00,2013-10-26 16:25:00,
2013-10-26 11:31:00,42.2,28.5,30.15,NW,312,8.0,14.0,58,0.00,,OVC044,0.00,VWS V14.00,2013-10-26 16:31:00,
2013-10-26 11:36:00,42.5,28.4,30.16,North,357,9.0,16.0,57,0.00,,OVC044,0.00,VWS V14.00,2013-10-26 16:36:00,
2013-10-26 11:41:00,42.5,27.9,30.16,NW,324,9.0,14.0,56,0.00,,OVC044,0.00,VWS V14.00,2013-10-26 16:41:00,
2013-10-26 11:46:00,42.4,28.3,30.16,NNW,336,12.0,15.0,57,0.00,,OVC044,0.00,VWS V14.00,2013-10-26 16:46:00,
2013-10-26 11:51:00,42.5,27.9,30.17,NW,309,2.0,12.0,56,0.00,,OVC044,0.00,VWS V14.00,2013-10-26 16:51:00,
2013-10-26 11:56:00,42.5,27.9,30.17,NNW,348,13.0,18.0,56,0.00,,OVC044,0.00,VWS V14.00,2013-10-26 16:56:00,
2013-10-26 12:01:00,42.7,28.1,30.17,NNW,334,6.0,9.0,56,0.00,,BKN033,0.00,VWS V14.00,2013-10-26 17:01:00,
2013-10-26 12:06:00,42.4,27.0,30.17,NNW,337,10.0,16.0,54,0.00,,BKN033,0.00,VWS V14.00,2013-10-26 17:06:00,
2013-10-26 12:11:00,42.1,27.1,30.17,NNW,329,7.0,14.0,55,0.00,,BKN033,0.00,VWS V14.00,2013-10-26 17:11:00,
2013-10-26 12:16:00,42.0,27.5,30.17,NNW,348,7.0,14.0,56,0.00,,BKN033,0.00,VWS V14.00,2013-10-26 17:16:00,
2013-10-26 12:21:00,42.2,27.6,30.17,NW,320,0.0,6.0,56,0.00,,BKN033,0.00,VWS V14.00,2013-10-26 17:21:00,
2013-10-26 12:26:00,42.5,27.5,30.17,North,358,6.0,15.0,55,0.00,,BKN033,0.00,VWS V14.00,2013-10-26 17:26:00,
2013-10-26 12:31:00,42.2,27.2,30.17,NNW,333,0.0,9.0,55,0.00,,BKN033,0.00,VWS V14.00,2013-10-26 17:31:00,
2013-10-26 12:36:00,42.2,27.2,30.17,NNW,346,6.0,14.0,55,0.00,,BKN033,0.00,VWS V14.00,2013-10-26 17:36:00,
2013-10-26 12:41:00,42.1,27.1,30.17,NW,320,6.0,14.0,55,0.00,,BKN033,0.00,VWS V14.00,2013-10-26 17:41:00,
2013-10-26 12:46:00,42.1,28.0,30.17,NNW,331,0.0,14.0,57,0.00,,BKN033,0.00,VWS V14.00,2013-10-26 17:46:00,
2013-10-26 12:51:00,42.1,27.5,30.17,NW,318,0.0,6.0,56,0.00,,BKN033,0.00,VWS V14.00,2013-10-26 17:51:00,
2013-10-26 12:56:00,42.1,27.1,30.17,NNW,333,14.0,16.0,55,0.00,,BKN033,0.00,VWS V14.00,2013-10-26 17:56:00,
2013-10-26 13:01:00,42.0,26.6,30.17,NNW,329,2.0,12.0,54,0.00,,OVC039,0.00,VWS V14.00,2013-10-26 18:01:00,
2013-10-26 13:06:00,42.1,26.7,30.17,NW,307,7.0,12.0,54,0.00,,OVC039,0.00,VWS V14.00,2013-10-26 18:06:00,
2013-10-26 13:11:00,42.1,26.2,30.17,NW,311,6.0,15.0,53,0.00,,OVC039,0.00,VWS V14.00,2013-10-26 18:11:00,
2013-10-26 13:16:00,41.9,26.5,30.17,NW,304,13.0,16.0,54,0.00,,OVC039,0.00,VWS V14.00,2013-10-26 18:16:00,
2013-10-26 13:21:00,41.8,26.4,30.17,NNW,332,6.0,9.0,54,0.00,,OVC039,0.00,VWS V14.00,2013-10-26 18:21:00,
2013-10-26 13:26:00,42.1,26.7,30.17,WNW,303,3.0,14.0,54,0.00,,OVC039,0.00,VWS V14.00,2013-10-26 18:26:00,
2013-10-26 13:31:00,42.1,26.2,30.17,NW,304,4.0,14.0,53,0.00,,OVC039,0.00,VWS V14.00,2013-10-26 18:31:00,
2013-10-26 13:36:00,42.0,26.1,30.17,NNW,333,6.0,14.0,53,0.00,,OVC039,0.00,VWS V14.00,2013-10-26 18:36:00,
2013-10-26 13:41:00,42.0,26.1,30.16,WNW,301,3.0,11.0,53,0.00,,OVC039,0.00,VWS V14.00,2013-10-26 18:41:00,
2013-10-26 13:46:00,42.1,26.7,30.17,NNW,336,6.0,16.0,54,0.00,,OVC039,0.00,VWS V14.00,2013-10-26 18:46:00,
2013-10-26 13:51:00,42.0,26.6,30.17,NW,308,6.0,13.0,54,0.00,,OVC039,0.00,VWS V14.00,2013-10-26 18:51:00,
2013-10-26 13:56:00,42.0,26.6,30.17,NNW,343,0.0,13.0,54,0.00,,OVC039,0.00,VWS V14.00,2013-10-26 18:56:00,
2013-10-26 14:01:00,42.0,26.6,30.17,North,0,0.0,0.0,54,0.00,,OVC041,0.00,VWS V14.00,2013-10-26 19:01:00,
2013-10-26 14:06:00,42.0,26.6,30.16,NNW,339,0.0,8.0,54,0.00,,OVC041,0.00,VWS V14.00,2013-10-26 19:06:00,
2013-10-26 14:11:00,42.0,26.6,30.16,NW,304,0.0,8.0,54,0.00,,OVC041,0.00,VWS V14.00,2013-10-26 19:11:00,
2013-10-26 14:16:00,41.9,26.5,30.16,NNW,328,0.0,12.0,54,0.00,,OVC041,0.00,VWS V14.00,2013-10-26 19:16:00,
2013-10-26 14:21:00,41.9,26.5,30.16,WNW,294,0.0,8.0,54,0.00,,OVC041,0.00,VWS V14.00,2013-10-26 19:21:00,
2013-10-26 14:26:00,41.8,26.8,30.16,NNW,331,5.0,8.0,55,0.00,,OVC041,0.00,VWS V14.00,2013-10-26 19:26:00,
2013-10-26 14:32:00,41.8,26.8,30.16,NNW,337,0.0,4.0,55,0.00,,OVC041,0.00,VWS V14.00,2013-10-26 19:32:00,
2013-10-26 14:37:00,41.8,26.8,30.16,NNW,336,0.0,4.0,55,0.00,,OVC041,0.00,VWS V14.00,2013-10-26 19:37:00,
2013-10-26 14:42:00,41.8,26.8,30.15,NW,318,6.0,9.0,55,0.00,,OVC041,0.00,VWS V14.00,2013-10-26 19:42:00,
2013-10-26 14:47:00,41.8,26.4,30.15,NW,305,0.0,9.0,54,0.00,,OVC041,0.00,VWS V14.00,2013-10-26 19:47:00,
2013-10-26 14:52:00,41.9,26.5,30.15,NW,317,2.0,2.0,54,0.00,,OVC041,0.00,VWS V14.00,2013-10-26 19:52:00,
2013-10-26 14:57:00,41.9,26.5,30.15,WNW,299,0.0,8.0,54,0.00,,OVC041,0.00,VWS V14.00,2013-10-26 19:57:00,
2013-10-26 15:02:00,42.0,26.1,30.15,NW,313,5.0,12.0,53,0.00,,OVC039,0.00,VWS V14.00,2013-10-26 20:02:00,
2013-10-26 15:07:00,41.9,26.0,30.14,WNW,298,0.0,12.0,53,0.00,,OVC039,0.00,VWS V14.00,2013-10-26 20:07:00,
2013-10-26 15:12:00,41.9,26.5,30.14,NW,310,0.0,0.0,54,0.00,,OVC039,0.00,VWS V14.00,2013-10-26 20:12:00,
2013-10-26 15:17:00,42.0,26.6,30.14,WNW,300,3.0,8.0,54,0.00,,OVC039,0.00,VWS V14.00,2013-10-26 20:17:00,
2013-10-26 15:22:00,42.0,26.1,30.14,NW,309,0.0,7.0,53,0.00,,OVC039,0.00,VWS V14.00,2013-10-26 20:22:00,
2013-10-26 15:27:00,42.0,26.1,30.14,WNW,303,3.0,8.0,53,0.00,,OVC039,0.00,VWS V14.00,2013-10-26 20:27:00,
2013-10-26 15:32:00,42.1,26.2,30.14,NW,312,0.0,0.0,53,0.00,,OVC039,0.00,VWS V14.00,2013-10-26 20:32:00,
2013-10-26 15:37:00,42.1,26.2,30.14,West,281,0.0,7.0,53,0.00,,OVC039,0.00,VWS V14.00,2013-10-26 20:37:00,
2013-10-26 15:42:00,42.0,25.7,30.14,WNW,285,0.0,8.0,52,0.00,,OVC039,0.00,VWS V14.00,2013-10-26 20:42:00,
2013-10-26 15:47:00,42.0,25.7,30.14,WNW,292,0.0,9.0,52,0.00,,OVC039,0.00,VWS V14.00,2013-10-26 20:47:00,
2013-10-26 15:52:00,42.1,25.8,30.13,NW,308,0.0,0.0,52,0.00,,OVC039,0.00,VWS V14.00,2013-10-26 20:52:00,
2013-10-26 15:57:00,42.2,25.9,30.14,NW,307,7.0,9.0,52,0.00,,OVC039,0.00,VWS V14.00,2013-10-26 20:57:00,
2013-10-26 16:02:00,42.2,25.9,30.13,NW,306,1.0,5.0,52,0.00,,OVC039,0.00,VWS V14.00,2013-10-26 21:02:00,
2013-10-26 16:07:00,42.3,25.9,30.13,NW,310,0.0,7.0,52,0.00,,OVC039,0.00,VWS V14.00,2013-10-26 21:07:00,
2013-10-26 16:12:00,42.3,25.5,30.12,WNW,282,8.0,8.0,51,0.00,,OVC039,0.00,VWS V14.00,2013-10-26 21:12:00,
2013-10-26 16:17:00,42.3,25.5,30.12,WNW,296,0.0,8.0,51,0.00,,OVC039,0.00,VWS V14.00,2013-10-26 21:17:00,
2013-10-26 16:22:00,42.4,25.6,30.12,WNW,288,0.0,6.0,51,0.00,,OVC039,0.00,VWS V14.00,2013-10-26 21:22:00,
2013-10-26 16:27:00,42.5,25.7,30.12,West,273,0.0,6.0,51,0.00,,OVC039,0.00,VWS V14.00,2013-10-26 21:27:00,
2013-10-26 16:32:00,42.5,24.7,30.11,West,276,0.0,7.0,49,0.00,,OVC039,0.00,VWS V14.00,2013-10-26 21:32:00,
2013-10-26 16:37:00,42.4,25.1,30.11,West,281,0.0,7.0,50,0.00,,OVC039,0.00,VWS V14.00,2013-10-26 21:37:00,
2013-10-26 16:42:00,42.5,25.7,30.11,WNW,287,0.0,0.0,51,0.00,,OVC039,0.00,VWS V14.00,2013-10-26 21:42:00,
2013-10-26 16:47:00,42.4,25.1,30.11,WNW,288,0.0,0.0,50,0.00,,OVC039,0.00,VWS V14.00,2013-10-26 21:47:00,
2013-10-26 16:52:00,42.4,25.1,30.11,West,275,0.0,6.0,50,0.00,,OVC039,0.00,VWS V14.00,2013-10-26 21:52:00,
2013-10-26 16:57:00,42.3,25.0,30.11,West,275,0.0,6.0,50,0.00,,OVC039,0.00,VWS V14.00,2013-10-26 21:57:00,
2013-10-26 17:02:00,42.3,25.0,30.11,West,276,0.0,0.0,50,0.00,,OVC041,0.00,VWS V14.00,2013-10-26 22:02:00,
2013-10-26 17:07:00,42.3,25.5,30.11,West,277,0.0,0.0,51,0.00,,OVC041,0.00,VWS V14.00,2013-10-26 22:07:00,
2013-10-26 17:12:00,42.3,25.5,30.11,NW,304,0.0,0.0,51,0.00,,OVC041,0.00,VWS V14.00,2013-10-26 22:12:00,
2013-10-26 17:17:00,42.1,24.8,30.11,WNW,287,0.0,0.0,50,0.00,,OVC041,0.00,VWS V14.00,2013-10-26 22:17:00,
2013-10-26 17:22:00,42.1,25.3,30.11,WNW,288,0.0,0.0,51,0.00,,OVC041,0.00,VWS V14.00,2013-10-26 22:22:00,
2013-10-26 17:27:00,42.1,24.8,30.11,WNW,288,0.0,0.0,50,0.00,,OVC041,0.00,VWS V14.00,2013-10-26 22:27:00,
2013-10-26 17:33:00,42.1,24.8,30.11,WNW,287,0.0,0.0,50,0.00,,OVC041,0.00,VWS V14.00,2013-10-26 22:33:00,
2013-10-26 17:38:00,42.1,25.3,30.11,WNW,287,0.0,0.0,51,0.00,,OVC041,0.00,VWS V14.00,2013-10-26 22:38:00,
2013-10-26 17:43:00,42.1,25.8,30.11,WNW,287,0.0,0.0,52,0.00,,OVC041,0.00,VWS V14.00,2013-10-26 22:43:00,
2013-10-26 17:48:00,42.0,25.2,30.10,WNW,287,0.0,0.0,51,0.00,,OVC041,0.00,VWS V14.00,2013-10-26 22:48:00,
2013-10-26 17:53:00,41.9,25.6,30.10,WNW,287,0.0,0.0,52,0.00,,OVC041,0.00,VWS V14.00,2013-10-26 22:53:00,
2013-10-26 17:58:00,41.6,25.3,30.09,WNW,287,0.0,0.0,52,0.00,,OVC041,0.00,VWS V14.00,2013-10-26 22:58:00,
2013-10-26 18:03:00,41.2,25.4,30.09,WNW,287,0.0,0.0,53,0.00,,BKN043,0.00,VWS V14.00,2013-10-26 23:03:00,
2013-10-26 18:08:00,40.9,25.5,30.09,WNW,287,0.0,0.0,54,0.00,,BKN043,0.00,VWS V14.00,2013-10-26 23:08:00,
2013-10-26 18:13:00,40.7,25.4,30.10,WNW,287,0.0,0.0,54,0.00,,BKN043,0.00,VWS V14.00,2013-10-26 23:13:00,
2013-10-26 18:18:00,40.6,25.3,30.11,WNW,287,0.0,0.0,54,0.00,,BKN043,0.00,VWS V14.00,2013-10-26 23:18:00,
2013-10-26 18:23:00,40.5,25.2,30.10,WNW,286,0.0,0.0,54,0.00,,BKN043,0.00,VWS V14.00,2013-10-26 23:23:00,
2013-10-26 18:28:00,40.5,24.7,30.10,WNW,286,0.0,0.0,53,0.00,,BKN043,0.00,VWS V14.00,2013-10-26 23:28:00,
2013-10-26 18:33:00,40.3,25.0,30.09,WNW,286,0.0,0.0,54,0.00,,BKN043,0.00,VWS V14.00,2013-10-26 23:33:00,
2013-10-26 18:38:00,40.2,24.9,30.09,WNW,286,0.0,0.0,54,0.00,,BKN043,0.00,VWS V14.00,2013-10-26 23:38:00,
2013-10-26 18:43:00,40.1,24.8,30.08,WNW,286,0.0,0.0,54,0.00,,BKN043,0.00,VWS V14.00,2013-10-26 23:43:00,
2013-10-26 18:48:00,39.9,24.6,30.08,WNW,286,0.0,0.0,54,0.00,,BKN043,0.00,VWS V14.00,2013-10-26 23:48:00,
2013-10-26 18:53:00,39.6,24.3,30.09,WNW,286,0.0,0.0,54,0.00,,BKN043,0.00,VWS V14.00,2013-10-26 23:53:00,
2013-10-26 18:58:00,39.4,24.6,30.08,WNW,286,0.0,0.0,55,0.00,,BKN043,0.00,VWS V14.00,2013-10-26 23:58:00,
2013-10-26 19:03:00,39.2,24.8,30.07,WNW,285,0.0,0.0,56,0.00,,CLR,0.00,VWS V14.00,2013-10-27 00:03:00,
2013-10-26 19:08:00,38.9,24.6,30.07,WNW,285,0.0,0.0,56,0.00,,CLR,0.00,VWS V14.00,2013-10-27 00:08:00,
2013-10-26 19:13:00,38.6,24.7,30.08,WNW,285,0.0,0.0,57,0.00,,CLR,0.00,VWS V14.00,2013-10-27 00:13:00,
2013-10-26 19:18:00,38.4,24.5,30.09,WNW,284,0.0,0.0,57,0.00,,CLR,0.00,VWS V14.00,2013-10-27 00:18:00,
2013-10-26 19:23:00,38.3,24.8,30.08,WNW,284,0.0,0.0,58,0.00,,CLR,0.00,VWS V14.00,2013-10-27 00:23:00,
2013-10-26 19:28:00,38.1,24.6,30.08,WNW,284,0.0,0.0,58,0.00,,CLR,0.00,VWS V14.00,2013-10-27 00:28:00,
2013-10-26 19:33:00,37.9,24.5,30.07,WNW,284,0.0,0.0,58,0.00,,CLR,0.00,VWS V14.00,2013-10-27 00:33:00,
2013-10-26 19:38:00,37.6,24.6,30.07,WNW,284,0.0,0.0,59,0.00,,CLR,0.00,VWS V14.00,2013-10-27 00:38:00,
2013-10-26 19:43:00,37.1,24.1,30.07,WNW,284,0.0,0.0,59,0.00,,CLR,0.00,VWS V14.00,2013-10-27 00:43:00,
2013-10-26 19:48:00,36.6,24.0,30.06,WNW,284,0.0,0.0,60,0.00,,CLR,0.00,VWS V14.00,2013-10-27 00:48:00,
2013-10-26 19:53:00,36.1,24.0,30.06,WNW,284,0.0,0.0,61,0.00,,CLR,0.00,VWS V14.00,2013-10-27 00:53:00,
2013-10-26 19:58:00,35.6,23.9,30.06,WNW,284,0.0,0.0,62,0.00,,CLR,0.00,VWS V14.00,2013-10-27 00:58:00,
2013-10-26 20:03:00,35.1,23.8,30.05,WNW,284,0.0,0.0,63,0.00,,CLR,0.00,VWS V14.00,2013-10-27 01:03:00,
2013-10-26 20:08:00,34.6,23.7,30.05,WNW,284,0.0,0.0,64,0.00,,CLR,0.00,VWS V14.00,2013-10-27 01:08:00,
2013-10-26 20:13:00,34.1,23.6,30.04,WNW,284,0.0,0.0,65,0.00,,CLR,0.00,VWS V14.00,2013-10-27 01:13:00,
2013-10-26 20:18:00,33.7,23.2,30.04,WNW,284,0.0,0.0,65,0.00,,CLR,0.00,VWS V14.00,2013-10-27 01:18:00,
2013-10-26 20:23:00,33.3,23.2,30.04,WNW,284,0.0,0.0,66,0.00,,CLR,0.00,VWS V14.00,2013-10-27 01:23:00,
2013-10-26 20:28:00,32.9,23.2,30.04,WNW,284,0.0,0.0,67,0.00,,CLR,0.00,VWS V14.00,2013-10-27 01:28:00,
2013-10-26 20:33:00,32.6,23.2,30.04,WNW,284,0.0,0.0,68,0.00,,CLR,0.00,VWS V14.00,2013-10-27 01:33:00,
2013-10-26 20:38:00,32.3,22.9,30.04,WNW,284,0.0,0.0,68,0.00,,CLR,0.00,VWS V14.00,2013-10-27 01:38:00,
2013-10-26 20:43:00,32.0,22.6,30.03,WNW,284,0.0,0.0,68,0.00,,CLR,0.00,VWS V14.00,2013-10-27 01:43:00,
2013-10-26 20:48:00,31.9,23.2,30.02,WNW,284,0.0,0.0,70,0.00,,CLR,0.00,VWS V14.00,2013-10-27 01:48:00,
2013-10-26 20:53:00,31.7,23.0,30.02,WNW,284,0.0,0.0,70,0.00,,CLR,0.00,VWS V14.00,2013-10-27 01:53:00,
2013-10-26 20:59:00,31.6,23.3,30.02,WNW,284,0.0,0.0,71,0.00,,CLR,0.00,VWS V14.00,2013-10-27 01:59:00,
2013-10-26 21:04:00,31.5,23.2,30.02,WNW,284,0.0,0.0,71,0.00,,CLR,0.00,VWS V14.00,2013-10-27 02:04:00,
2013-10-26 21:09:00,31.6,23.6,30.01,WNW,284,0.0,0.0,72,0.00,,CLR,0.00,VWS V14.00,2013-10-27 02:09:00,
2013-10-26 21:14:00,31.5,23.5,30.02,WNW,284,0.0,0.0,72,0.00,,CLR,0.00,VWS V14.00,2013-10-27 02:14:00,
2013-10-26 21:19:00,31.4,23.4,30.02,WNW,284,0.0,0.0,72,0.00,,CLR,0.00,VWS V14.00,2013-10-27 02:19:00,
2013-10-26 21:24:00,31.5,23.5,30.01,WNW,284,0.0,0.0,72,0.00,,CLR,0.00,VWS V14.00,2013-10-27 02:24:00,
2013-10-26 21:29:00,31.6,23.6,30.01,WNW,284,0.0,0.0,72,0.00,,CLR,0.00,VWS V14.00,2013-10-27 02:29:00,
2013-10-26 21:34:00,31.6,23.6,30.00,WNW,284,0.0,0.0,72,0.00,,CLR,0.00,VWS V14.00,2013-10-27 02:34:00,
2013-10-26 21:39:00,31.5,23.5,30.01,WNW,284,0.0,0.0,72,0.00,,CLR,0.00,VWS V14.00,2013-10-27 02:39:00,
2013-10-26 21:44:00,31.5,23.5,30.00,WNW,284,0.0,0.0,72,0.00,,CLR,0.00,VWS V14.00,2013-10-27 02:44:00,
2013-10-26 21:49:00,31.5,23.5,30.00,WNW,284,0.0,0.0,72,0.00,,CLR,0.00,VWS V14.00,2013-10-27 02:49:00,
2013-10-26 21:54:00,31.5,23.5,29.99,WNW,284,0.0,0.0,72,0.00,,CLR,0.00,VWS V14.00,2013-10-27 02:54:00,
2013-10-26 21:59:00,31.6,23.6,29.99,West,280,0.0,0.0,72,0.00,,CLR,0.00,VWS V14.00,2013-10-27 02:59:00,
2013-10-26 22:04:00,31.7,23.7,29.99,West,277,0.0,0.0,72,0.00,,CLR,0.00,VWS V14.00,2013-10-27 03:04:00,
2013-10-26 22:09:00,31.8,23.8,29.99,West,276,0.0,0.0,72,0.00,,CLR,0.00,VWS V14.00,2013-10-27 03:09:00,
2013-10-26 22:14:00,31.9,23.9,29.98,West,265,0.0,0.0,72,0.00,,CLR,0.00,VWS V14.00,2013-10-27 03:14:00,
2013-10-26 22:19:00,32.2,24.2,29.98,West,264,0.0,0.0,72,0.00,,CLR,0.00,VWS V14.00,2013-10-27 03:19:00,
2013-10-26 22:24:00,32.3,24.3,29.98,West,262,0.0,0.0,72,0.00,,CLR,0.00,VWS V14.00,2013-10-27 03:24:00,
2013-10-26 22:29:00,32.4,24.4,29.98,West,262,0.0,0.0,72,0.00,,CLR,0.00,VWS V14.00,2013-10-27 03:29:00,
2013-10-26 22:34:00,32.4,24.1,29.97,WSW,258,0.0,0.0,71,0.00,,CLR,0.00,VWS V14.00,2013-10-27 03:34:00,
2013-10-26 22:39:00,32.5,24.2,29.97,WSW,254,0.0,0.0,71,0.00,,CLR,0.00,VWS V14.00,2013-10-27 03:39:00,
2013-10-26 22:44:00,32.5,24.2,29.96,WSW,253,0.0,0.0,71,0.00,,CLR,0.00,VWS V14.00,2013-10-27 03:44:00,
2013-10-26 22:49:00,32.6,24.2,29.96,WSW,249,0.0,0.0,71,0.00,,CLR,0.00,VWS V14.00,2013-10-27 03:49:00,
2013-10-26 22:54:00,32.7,24.4,29.95,SW,218,0.0,0.0,71,0.00,,CLR,0.00,VWS V14.00,2013-10-27 03:54:00,
2013-10-26 22:59:00,32.8,24.1,29.94,South,185,0.0,0.0,70,0.00,,CLR,0.00,VWS V14.00,2013-10-27 03:59:00,
2013-10-26 23:01:00,32.8,24.1,29.94,South,184,0.0,0.0,70,0.00,,CLR,0.00,VWS V14.00,2013-10-27 04:01:00,
2013-10-26 23:02:00,32.8,24.1,29.94,South,184,0.0,0.0,70,0.00,,CLR,0.00,VWS V14.00,2013-10-27 04:02:00,
2013-10-26 23:07:00,32.8,24.1,29.95,South,182,0.0,0.0,70,0.00,,CLR,0.00,VWS V14.00,2013-10-27 04:07:00,
2013-10-26 23:12:00,32.8,24.1,29.95,South,182,0.0,0.0,70,0.00,,CLR,0.00,VWS V14.00,2013-10-27 04:12:00,
2013-10-26 23:17:00,32.7,24.0,29.95,South,182,0.0,0.0,70,0.00,,CLR,0.00,VWS V14.00,2013-10-27 04:17:00,
2013-10-26 23:22:00,32.6,23.9,29.94,South,182,0.0,0.0,70,0.00,,CLR,0.00,VWS V14.00,2013-10-27 04:22:00,
2013-10-26 23:27:00,32.5,23.8,29.94,South,182,0.0,0.0,70,0.00,,CLR,0.00,VWS V14.00,2013-10-27 04:27:00,
2013-10-26 23:32:00,32.5,24.2,29.94,South,182,0.0,0.0,71,0.00,,CLR,0.00,VWS V14.00,2013-10-27 04:32:00,
2013-10-26 23:37:00,32.5,24.2,29.93,South,181,0.0,0.0,71,0.00,,CLR,0.00,VWS V14.00,2013-10-27 04:37:00,
2013-10-26 23:42:00,32.4,24.1,29.93,South,181,0.0,0.0,71,0.00,,CLR,0.00,VWS V14.00,2013-10-27 04:42:00,
2013-10-26 23:47:00,32.2,23.9,29.93,South,181,0.0,0.0,71,0.00,,CLR,0.00,VWS V14.00,2013-10-27 04:47:00,
2013-10-26 23:52:00,32.1,24.1,29.92,South,180,0.0,0.0,72,0.00,,CLR,0.00,VWS V14.00,2013-10-27 04:52:00,
2013-10-26 23:57:00,32.0,24.0,29.92,South,179,0.0,0.0,72,0.00,,CLR,0.00,VWS V14.00,2013-10-27 04:57:00,